METAR Data
IDs: Format: Raw Decoded Include TAF

Data at: 1537 UTC 21 Sep 2018

KHKS 211453Z 14003KT 10SM CLR 29/24 A3010 RMK AO2 SLP183 T02940244 51006
KHKS 211353Z 20004KT 10SM CLR 27/24 A3010 RMK AO2 SLP182 T02720244
KHKS 211316Z 00000KT 9SM SCT028 25/24 A3010 RMK AO2 T02500244
KHKS 211253Z 00000KT 7SM BKN027 25/24 A3009 RMK AO2 SLP181 T02500244
KHKS 211208Z 00000KT 6SM BR BKN024 23/23 A3008 RMK AO2 T02330233
KHKS 211153Z AUTO 00000KT 6SM BR SCT024 23/23 A3008 RMK AO2 SLP177 T02330233 10256 20233 53014
KHKS 211053Z AUTO 12003KT 9SM CLR 24/23 A3006 RMK AO2 SLP171 T02390233
KHKS 210953Z AUTO 14003KT 10SM CLR 24/23 A3005 RMK AO2 SLP167 T02390233
KHKS 210853Z AUTO 13003KT 10SM CLR 24/23 A3004 RMK AO2 SLP163 T02390233 55000
KHKS 210753Z AUTO 12004KT 10SM CLR 24/23 A3003 RMK AO2 SLP161 T02440233
KHKS 210653Z AUTO 13004KT 10SM CLR 24/23 A3004 RMK AO2 SLP163 T02440233
KHKS 210553Z AUTO 20003KT 10SM CLR 26/23 A3004 RMK AO2 SLP163 T02560233 10300 20256 403390222 50007
KHKS 210453Z AUTO 19007KT 10SM CLR 27/23 A3004 RMK AO2 SLP165 T02670233
KHKS 210353Z AUTO 18008KT 10SM CLR 27/23 A3003 RMK AO2 SLP160 T02720233
KHKS 210253Z AUTO 17008KT 10SM CLR 28/23 A3002 RMK AO2 SLP156 T02780233 53016
KHKS 210153Z 13004KT 10SM CLR 28/23 A2999 RMK AO2 SLP146 T02780233
KHKS 210053Z 11004KT 10SM CLR 29/23 A2997 RMK AO2 SLP141 T02890228
KHKS 202353Z 12004KT 10SM CLR 30/23 A2997 RMK AO2 SLP140 T03000228 10339 20300 55001
KHKS 202253Z 17006KT 10SM FEW110 32/22 A2997 RMK AO2 SLP139 T03170222
KHKS 202153Z 16006KT 10SM CLR 33/21 A2997 RMK AO2 SLP140 T03280211
KHKS 202053Z 12009KT 10SM CLR 33/22 A2997 RMK AO2 SLP141 T03330217 56018
KHKS 201953Z 14007KT 10SM CLR 34/22 A2999 RMK AO2 SLP147 T03390222
KHKS 201853Z 15008KT 10SM SCT070 33/22 A3000 RMK AO2 SLP151 T03330217
KHKS 201753Z VRB03KT 10SM FEW050 SCT060 33/22 A3003 RMK AO2 SLP159 T03330222 10339 20222 58010
KHKS 201653Z 13003KT 10SM FEW070 BKN095 32/22 A3005 RMK AO2 SLP168 T03170222
KHKS 201553Z 00000KT 10SM CLR 32/22 A3006 RMK AO2 SLP171 T03220222
KHKS 201453Z 00000KT 10SM CLR 31/23 A3006 RMK AO2 SLP169 T03060233 52013
KHKS 201353Z 00000KT 10SM CLR 28/24 A3004 RMK AO2 SLP164 T02780239
KHKS 201253Z 00000KT 10SM CLR 24/23 A3003 RMK AO2 SLP161 T02390228
KHKS 201153Z AUTO 00000KT 10SM CLR 22/22 A3002 RMK AO2 SLP156 T02220217 10250 20222 53010
KHKS 201053Z AUTO 00000KT 10SM CLR 23/22 A3000 RMK AO2 SLP149 T02280217
KHKS 200953Z AUTO 00000KT 10SM CLR 22/22 A2999 RMK AO2 SLP148 T02220217
KHKS 200853Z AUTO 00000KT 10SM CLR 23/22 A2999 RMK AO2 SLP146 T02330217 53000
KHKS 200753Z AUTO 00000KT 10SM CLR 24/22 A2999 RMK AO2 SLP145 T02390217
KHKS 200653Z AUTO 00000KT 10SM CLR 25/22 A2999 RMK AO2 SLP144 T02500217
KHKS 200553Z AUTO 11003KT 10SM CLR 25/22 A2999 RMK AO2 SLP146 T02500217 10311 20244 403560228 53001
KHKS 200453Z AUTO 00000KT 10SM CLR 24/22 A2999 RMK AO2 SLP145 T02440222
KHKS 200353Z AUTO 00000KT 10SM CLR 25/22 A2999 RMK AO2 SLP145 T02500222